sensor_id;sensor_type;location;lat;lon;timestamp;pressure;altitude;pressure_sealevel;temperature;humidity
7888;BME280;3989;48.810;9.208;2023-02-28T09:28:49;99579.72;;;1.61;69.19
7888;BME280;3989;48.810;9.208;2023-02-28T09:35:10;99444.56;;;1.11;64.67
7888;BME280;3989;48.810;9.208;2023-02-28T09:38:12;99621.34;;;2.06;66.92
7888;BME280;3989;48.810;9.208;2023-02-28T09:41:14;99464.44;;;1.02;64.54
7888;BME280;3989;48.810;9.208;2023-02-28T09:53:27;99552.56;;;1.73;64.44
7888;BME280;3989;48.810;9.208;2023-02-28T09:56:20;99515.22;;;1.55;63.79
7888;BME280;3989;48.810;9.208;2023-02-28T09:59:01;99575.31;;;2.11;62.49
7888;BME280;3989;48.810;9.208;2023-02-28T10:01:36;99631.84;;;2.56;62.58
7888;BME280;3989;48.810;9.208;2023-02-28T10:04:09;99610.84;;;2.68;61.56
7888;BME280;3989;48.810;9.208;2023-02-28T10:06:45;99601.88;;;2.70;59.47
7888;BME280;3989;48.810;9.208;2023-02-28T10:09:17;99626.78;;;3.02;59.91
7888;BME280;3989;48.810;9.208;2023-02-28T10:11:46;99629.19;;;3.05;58.67
7888;BME280;3989;48.810;9.208;2023-02-28T10:14:16;99505.13;;;2.36;58.06
7888;BME280;3989;48.810;9.208;2023-02-28T10:16:46;99623.63;;;2.97;57.75
7888;BME280;3989;48.810;9.208;2023-02-28T10:19:20;99650.81;;;2.98;58.46
7888;BME280;3989;48.810;9.208;2023-02-28T10:21:54;99628.06;;;2.97;58.18
7888;BME280;3989;48.810;9.208;2023-02-28T10:24:27;99605.72;;;2.90;57.83
7888;BME280;3989;48.810;9.208;2023-02-28T10:26:59;99573.16;;;2.78;57.94
7888;BME280;3989;48.810;9.208;2023-02-28T10:29:31;99639.25;;;3.24;56.96
7888;BME280;3989;48.810;9.208;2023-02-28T10:32:02;99644.84;;;3.67;57.37
7888;BME280;3989;48.810;9.208;2023-02-28T10:34:29;99637.38;;;3.96;56.30
7888;BME280;3989;48.810;9.208;2023-02-28T10:36:58;99636.94;;;4.13;55.61
7888;BME280;3989;48.810;9.208;2023-02-28T10:39:37;99603.88;;;3.96;55.31
7888;BME280;3989;48.810;9.208;2023-02-28T10:42:05;99616.50;;;4.15;54.68
7888;BME280;3989;48.810;9.208;2023-02-28T10:44:45;99630.31;;;4.18;54.60
7888;BME280;3989;48.810;9.208;2023-02-28T10:47:14;99549.25;;;3.40;54.50
7888;BME280;3989;48.810;9.208;2023-02-28T10:49:46;99629.59;;;4.05;55.19
7888;BME280;3989;48.810;9.208;2023-02-28T10:52:13;99609.94;;;4.32;53.69
7888;BME280;3989;48.810;9.208;2023-02-28T10:55:14;99631.91;;;4.76;53.83
7888;BME280;3989;48.810;9.208;2023-02-28T10:57:42;99631.31;;;4.84;52.20
7888;BME280;3989;48.810;9.208;2023-02-28T11:00:16;99626.31;;;5.13;53.27
7888;BME280;3989;48.810;9.208;2023-02-28T11:02:44;99601.97;;;4.87;50.85
7888;BME280;3989;48.810;9.208;2023-02-28T11:05:26;99620.84;;;4.94;52.06
7888;BME280;3989;48.810;9.208;2023-02-28T11:07:53;99607.97;;;4.89;52.62
7888;BME280;3989;48.810;9.208;2023-02-28T11:10:25;99565.91;;;4.86;51.74
7888;BME280;3989;48.810;9.208;2023-02-28T11:12:55;99631.13;;;5.19;51.80
7888;BME280;3989;48.810;9.208;2023-02-28T11:15:26;99619.50;;;5.42;51.49
7888;BME280;3989;48.810;9.208;2023-02-28T11:17:54;99616.84;;;5.42;50.94
7888;BME280;3989;48.810;9.208;2023-02-28T11:20:23;99512.97;;;4.97;50.48
7888;BME280;3989;48.810;9.208;2023-02-28T11:22:51;99475.91;;;4.65;50.61
7888;BME280;3989;48.810;9.208;2023-02-28T11:25:23;99597.09;;;5.14;50.49
7888;BME280;3989;48.810;9.208;2023-02-28T11:27:52;99551.19;;;4.61;51.18
7888;BME280;3989;48.810;9.208;2023-02-28T11:30:32;99601.25;;;4.63;51.69
7888;BME280;3989;48.810;9.208;2023-02-28T11:33:00;99563.50;;;4.72;52.53
7888;BME280;3989;48.810;9.208;2023-02-28T11:35:30;99570.97;;;4.78;51.65
7888;BME280;3989;48.810;9.208;2023-02-28T11:38:00;99566.50;;;4.90;51.45
7888;BME280;3989;48.810;9.208;2023-02-28T11:40:31;99568.53;;;4.86;51.52
7888;BME280;3989;48.810;9.208;2023-02-28T11:43:13;99597.38;;;4.89;52.37
7888;BME280;3989;48.810;9.208;2023-02-28T11:46:06;99559.75;;;4.86;52.34
7888;BME280;3989;48.810;9.208;2023-02-28T11:48:44;99446.94;;;4.21;51.81
7888;BME280;3989;48.810;9.208;2023-02-28T11:51:21;99563.50;;;5.26;51.66
7888;BME280;3989;48.810;9.208;2023-02-28T11:54:02;99581.16;;;5.57;51.51
7888;BME280;3989;48.810;9.208;2023-02-28T11:56:35;99578.91;;;5.73;50.89
7888;BME280;3989;48.810;9.208;2023-02-28T11:59:27;99589.66;;;5.40;49.67
7888;BME280;3989;48.810;9.208;2023-02-28T12:02:22;99439.97;;;4.31;50.87
7888;BME280;3989;48.810;9.208;2023-02-28T12:05:00;99595.34;;;5.04;50.89
7888;BME280;3989;48.810;9.208;2023-02-28T12:07:38;99580.19;;;4.95;51.12
7888;BME280;3989;48.810;9.208;2023-02-28T12:10:19;99513.31;;;4.61;51.60
7888;BME280;3989;48.810;9.208;2023-02-28T12:12:54;99579.16;;;5.18;51.55
7888;BME280;3989;48.810;9.208;2023-02-28T12:15:35;99528.88;;;4.86;51.30
7888;BME280;3989;48.810;9.208;2023-02-28T12:18:21;99577.81;;;5.23;51.98
7888;BME280;3989;48.810;9.208;2023-02-28T12:20:54;99578.41;;;5.27;51.42
7888;BME280;3989;48.810;9.208;2023-02-28T12:23:51;99569.78;;;5.14;51.03
7888;BME280;3989;48.810;9.208;2023-02-28T12:26:28;99552.50;;;5.10;51.55
7888;BME280;3989;48.810;9.208;2023-02-28T12:29:02;99561.19;;;5.33;51.21
7888;BME280;3989;48.810;9.208;2023-02-28T12:31:33;99563.19;;;5.40;51.42
7888;BME280;3989;48.810;9.208;2023-02-28T12:34:06;99562.16;;;5.32;50.77
7888;BME280;3989;48.810;9.208;2023-02-28T12:36:36;99560.59;;;5.29;50.51
7888;BME280;3989;48.810;9.208;2023-02-28T12:39:08;99563.00;;;5.32;50.27
7888;BME280;3989;48.810;9.208;2023-02-28T12:41:41;99560.09;;;5.35;50.99
7888;BME280;3989;48.810;9.208;2023-02-28T12:44:11;99556.38;;;5.58;50.93
7888;BME280;3989;48.810;9.208;2023-02-28T12:46:41;99560.81;;;5.58;49.67
7888;BME280;3989;48.810;9.208;2023-02-28T12:49:14;99536.91;;;5.27;49.89
7888;BME280;3989;48.810;9.208;2023-02-28T12:51:44;99556.75;;;5.33;50.43
7888;BME280;3989;48.810;9.208;2023-02-28T12:54:18;99493.38;;;5.00;50.42
7888;BME280;3989;48.810;9.208;2023-02-28T12:56:50;99534.84;;;5.31;50.74
7888;BME280;3989;48.810;9.208;2023-02-28T12:59:24;99483.88;;;4.97;50.59
7888;BME280;3989;48.810;9.208;2023-02-28T13:02:15;99530.19;;;5.44;50.35
7888;BME280;3989;48.810;9.208;2023-02-28T13:05:10;99542.88;;;5.61;50.32
7888;BME280;3989;48.810;9.208;2023-02-28T13:10:43;99521.34;;;5.34;50.24
7888;BME280;3989;48.810;9.208;2023-02-28T13:13:15;99511.34;;;5.38;50.08
7888;BME280;3989;48.810;9.208;2023-02-28T13:15:57;99533.63;;;5.56;49.96
7888;BME280;3989;48.810;9.208;2023-02-28T13:18:30;99447.66;;;4.98;49.49
7888;BME280;3989;48.810;9.208;2023-02-28T13:21:00;99531.56;;;5.39;49.38
7888;BME280;3989;48.810;9.208;2023-02-28T13:23:57;99502.69;;;5.36;49.58
7888;BME280;3989;48.810;9.208;2023-02-28T13:27:10;99535.69;;;5.73;49.89
7888;BME280;3989;48.810;9.208;2023-02-28T13:29:38;99530.88;;;5.78;49.47
7888;BME280;3989;48.810;9.208;2023-02-28T13:38:24;99523.91;;;5.98;48.65
7888;BME280;3989;48.810;9.208;2023-02-28T13:44:03;99491.84;;;5.80;48.65
7888;BME280;3989;48.810;9.208;2023-02-28T13:46:32;99523.16;;;5.96;48.48
7888;BME280;3989;48.810;9.208;2023-02-28T13:49:23;99514.38;;;5.95;48.47
7888;BME280;3989;48.810;9.208;2023-02-28T13:51:51;99497.25;;;5.78;48.44
7888;BME280;3989;48.810;9.208;2023-02-28T13:54:26;99459.63;;;5.54;48.02
7888;BME280;3989;48.810;9.208;2023-02-28T13:57:06;99527.81;;;6.03;48.25
7888;BME280;3989;48.810;9.208;2023-02-28T13:59:46;99342.06;;;5.06;47.80
7888;BME280;3989;48.810;9.208;2023-02-28T14:02:40;99518.97;;;6.14;47.85
7888;BME280;3989;48.810;9.208;2023-02-28T14:05:13;99479.53;;;5.79;47.48
7888;BME280;3989;48.810;9.208;2023-02-28T14:07:45;99449.22;;;5.62;47.86
7888;BME280;3989;48.810;9.208;2023-02-28T14:10:24;99488.06;;;5.82;47.81
7888;BME280;3989;48.810;9.208;2023-02-28T14:12:54;99508.75;;;6.09;48.00
7888;BME280;3989;48.810;9.208;2023-02-28T14:15:46;99504.09;;;6.02;48.03
7888;BME280;3989;48.810;9.208;2023-02-28T14:18:25;99518.00;;;6.24;47.97
7888;BME280;3989;48.810;9.208;2023-02-28T14:20:57;99526.53;;;6.28;47.66
7888;BME280;3989;48.810;9.208;2023-02-28T14:23:36;99475.75;;;5.93;47.77
7888;BME280;3989;48.810;9.208;2023-02-28T14:26:16;99398.84;;;5.53;47.67
7888;BME280;3989;48.810;9.208;2023-02-28T14:29:01;99505.97;;;6.20;47.35
7888;BME280;3989;48.810;9.208;2023-02-28T14:31:38;99522.50;;;6.33;47.62
7888;BME280;3989;48.810;9.208;2023-02-28T14:34:30;99523.84;;;6.18;47.65
7888;BME280;3989;48.810;9.208;2023-02-28T14:37:00;99516.19;;;6.25;47.39
7888;BME280;3989;48.810;9.208;2023-02-28T14:39:29;99456.81;;;5.97;47.96
7888;BME280;3989;48.810;9.208;2023-02-28T14:41:59;99458.47;;;5.98;47.44
7888;BME280;3989;48.810;9.208;2023-02-28T14:44:30;99517.63;;;6.29;47.83
7888;BME280;3989;48.810;9.208;2023-02-28T14:46:58;99499.63;;;6.32;47.86
7888;BME280;3989;48.810;9.208;2023-02-28T14:49:30;99370.31;;;5.56;47.32
7888;BME280;3989;48.810;9.208;2023-02-28T14:52:05;99506.81;;;6.21;47.20
7888;BME280;3989;48.810;9.208;2023-02-28T14:54:35;99527.94;;;6.32;47.49
7888;BME280;3989;48.810;9.208;2023-02-28T14:57:03;99529.75;;;6.31;48.05
7888;BME280;3989;48.810;9.208;2023-02-28T14:59:32;99519.16;;;6.31;47.97
7888;BME280;3989;48.810;9.208;2023-02-28T15:02:16;99488.22;;;6.11;48.31
7888;BME280;3989;48.810;9.208;2023-02-28T15:04:52;99507.50;;;6.13;48.28
7888;BME280;3989;48.810;9.208;2023-02-28T15:07:19;99530.25;;;6.16;48.21
7888;BME280;3989;48.810;9.208;2023-02-28T15:10:07;99484.25;;;5.75;48.34
7888;BME280;3989;48.810;9.208;2023-02-28T15:12:36;99492.78;;;5.79;48.35
7888;BME280;3989;48.810;9.208;2023-02-28T15:15:03;99450.16;;;5.52;48.89
7888;BME280;3989;48.810;9.208;2023-02-28T15:17:30;99519.00;;;5.82;48.61
7888;BME280;3989;48.810;9.208;2023-02-28T15:19:57;99526.91;;;5.72;48.72
7888;BME280;3989;48.810;9.208;2023-02-28T15:22:28;99534.47;;;5.77;49.22
7888;BME280;3989;48.810;9.208;2023-02-28T15:24:57;99492.31;;;5.44;49.60
7888;BME280;3989;48.810;9.208;2023-02-28T15:27:27;99390.97;;;4.91;49.48
7888;BME280;3989;48.810;9.208;2023-02-28T15:29:57;99536.66;;;5.72;49.78
7888;BME280;3989;48.810;9.208;2023-02-28T15:32:27;99432.84;;;5.06;50.02
7888;BME280;3989;48.810;9.208;2023-02-28T15:34:55;99354.22;;;4.56;49.73
7888;BME280;3989;48.810;9.208;2023-02-28T15:37:27;99540.09;;;5.63;50.15
7888;BME280;3989;48.810;9.208;2023-02-28T15:39:56;99518.19;;;5.61;49.97
7888;BME280;3989;48.810;9.208;2023-02-28T15:42:28;99541.88;;;5.62;50.08
7888;BME280;3989;48.810;9.208;2023-02-28T15:44:57;99506.38;;;5.44;50.13
7888;BME280;3989;48.810;9.208;2023-02-28T15:47:26;99423.66;;;4.90;50.39
7888;BME280;3989;48.810;9.208;2023-02-28T15:49:56;99543.84;;;5.60;50.39
7888;BME280;3989;48.810;9.208;2023-02-28T15:52:28;99450.78;;;5.03;50.42
7888;BME280;3989;48.810;9.208;2023-02-28T15:54:57;99539.16;;;5.53;50.30
7888;BME280;3989;48.810;9.208;2023-02-28T15:57:26;99544.09;;;5.57;51.35
7888;BME280;3989;48.810;9.208;2023-02-28T15:59:56;99504.50;;;5.35;50.55
7888;BME280;3989;48.810;9.208;2023-02-28T16:02:32;99537.63;;;5.50;50.60
7888;BME280;3989;48.810;9.208;2023-02-28T16:05:12;99514.81;;;5.17;51.40
7888;BME280;3989;48.810;9.208;2023-02-28T16:07:44;99505.06;;;5.18;51.15
7888;BME280;3989;48.810;9.208;2023-02-28T16:10:12;99540.28;;;5.29;51.12
7888;BME280;3989;48.810;9.208;2023-02-28T16:12:41;99498.91;;;4.97;51.16
7888;BME280;3989;48.810;9.208;2023-02-28T16:15:17;99545.84;;;5.15;51.60
7888;BME280;3989;48.810;9.208;2023-02-28T16:17:45;99462.25;;;4.49;51.51
7888;BME280;3989;48.810;9.208;2023-02-28T16:20:14;99546.28;;;5.00;52.13
7888;BME280;3989;48.810;9.208;2023-02-28T16:22:41;99519.41;;;4.72;52.51
7888;BME280;3989;48.810;9.208;2023-02-28T16:25:11;99557.97;;;4.86;52.44
7888;BME280;3989;48.810;9.208;2023-02-28T16:27:38;99541.28;;;4.74;52.76
7888;BME280;3989;48.810;9.208;2023-02-28T16:30:06;99558.75;;;4.98;52.38
7888;BME280;3989;48.810;9.208;2023-02-28T16:32:34;99568.63;;;5.59;51.19
7888;BME280;3989;48.810;9.208;2023-02-28T16:35:05;99561.75;;;6.40;49.61
7888;BME280;3989;48.810;9.208;2023-02-28T16:37:32;99513.38;;;6.57;47.86
7888;BME280;3989;48.810;9.208;2023-02-28T16:39:58;99425.59;;;6.01;47.51
7888;BME280;3989;48.810;9.208;2023-02-28T16:42:27;99573.75;;;6.83;47.36
7888;BME280;3989;48.810;9.208;2023-02-28T16:44:55;99538.78;;;6.19;48.42
7888;BME280;3989;48.810;9.208;2023-02-28T16:47:23;99540.69;;;5.46;49.51
7888;BME280;3989;48.810;9.208;2023-02-28T16:49:51;99548.72;;;4.81;50.92
7888;BME280;3989;48.810;9.208;2023-02-28T16:52:19;99578.34;;;4.52;52.52
7888;BME280;3989;48.810;9.208;2023-02-28T16:54:46;99327.50;;;2.62;53.35
7888;BME280;3989;48.810;9.208;2023-02-28T16:57:18;99565.56;;;3.80;54.03
7888;BME280;3989;48.810;9.208;2023-02-28T16:59:46;99555.66;;;3.59;55.21
7888;BME280;3989;48.810;9.208;2023-02-28T17:02:15;99587.09;;;3.62;55.49
7888;BME280;3989;48.810;9.208;2023-02-28T17:04:44;99312.22;;;1.85;56.22
7888;BME280;3989;48.810;9.208;2023-02-28T17:07:12;99560.47;;;3.20;56.95
7888;BME280;3989;48.810;9.208;2023-02-28T17:09:42;99547.38;;;3.18;57.86
7888;BME280;3989;48.810;9.208;2023-02-28T17:12:09;99536.09;;;2.92;58.31
7888;BME280;3989;48.810;9.208;2023-02-28T17:14:37;99600.28;;;3.04;59.53
7888;BME280;3989;48.810;9.208;2023-02-28T17:17:04;99466.41;;;2.13;62.48
7888;BME280;3989;48.810;9.208;2023-02-28T17:19:31;99532.81;;;2.41;62.57
7888;BME280;3989;48.810;9.208;2023-02-28T17:21:59;99603.75;;;2.81;64.25
7888;BME280;3989;48.810;9.208;2023-02-28T17:24:25;99444.59;;;1.74;64.76
7888;BME280;3989;48.810;9.208;2023-02-28T17:26:54;99564.13;;;2.33;67.84
7888;BME280;3989;48.810;9.208;2023-02-28T17:29:21;99533.38;;;2.21;67.92
7888;BME280;3989;48.810;9.208;2023-02-28T17:31:49;99592.66;;;2.39;69.43
7888;BME280;3989;48.810;9.208;2023-02-28T17:34:33;99597.13;;;2.26;71.18
7888;BME280;3989;48.810;9.208;2023-02-28T17:36:59;99487.00;;;1.32;75.63
7888;BME280;3989;48.810;9.208;2023-02-28T17:39:26;99484.03;;;1.36;74.86
7888;BME280;3989;48.810;9.208;2023-02-28T17:41:55;99619.31;;;1.84;77.03
7888;BME280;3989;48.810;9.208;2023-02-28T17:44:23;99640.84;;;2.03;78.04
7888;BME280;3989;48.810;9.208;2023-02-28T17:46:50;99576.69;;;1.67;79.01
7888;BME280;3989;48.810;9.208;2023-02-28T17:49:17;99641.66;;;2.04;78.98
7888;BME280;3989;48.810;9.208;2023-02-28T17:51:45;99589.72;;;1.68;79.34
7888;BME280;3989;48.810;9.208;2023-02-28T17:54:11;99639.22;;;1.88;79.23
7888;BME280;3989;48.810;9.208;2023-02-28T17:56:39;99582.78;;;1.54;79.74
7888;BME280;3989;48.810;9.208;2023-02-28T17:59:12;99612.88;;;1.63;81.70
7888;BME280;3989;48.810;9.208;2023-02-28T18:01:39;99584.31;;;1.44;81.66
7888;BME280;3989;48.810;9.208;2023-02-28T18:04:06;99646.06;;;1.91;80.59
7888;BME280;3989;48.810;9.208;2023-02-28T18:06:35;99551.91;;;1.31;80.96
7888;BME280;3989;48.810;9.208;2023-02-28T18:09:13;99533.03;;;1.12;81.69
7888;BME280;3989;48.810;9.208;2023-02-28T18:11:40;99591.97;;;1.35;82.38
